Time;durP1;ratioP1;P1;durP2;ratioP2;P2;SDS_P1;SDS_P2;PMS_P1;PMS_P2;Temp;Humidity;BMP_temperature;BMP_pressure;BME280_temperature;BME280_humidity;BME280_pressure;Samples;Min_cycle;Max_cycle;Signal;HPM_P1;HPM_P2
2021/09/27 00:01:01;;;;;;;13.67;12.30;;;16.30;99.90;;;;;;5074348;28;20483;-61
2021/09/27 00:03:29;;;;;;;14.50;12.40;;;16.20;99.90;;;;;;5074493;28;20459;-63
2021/09/27 00:05:57;;;;;;;14.20;12.80;;;16.30;99.90;;;;;;5074044;28;20987;-63
2021/09/27 00:08:24;;;;;;;20.33;15.03;;;16.20;99.90;;;;;;5074168;28;20797;-63
2021/09/27 00:10:54;;;;;;;14.17;12.63;;;16.20;99.90;;;;;;5074170;28;20444;-63
2021/09/27 00:13:25;;;;;;;15.43;13.57;;;16.30;99.90;;;;;;5074054;28;20956;-63
2021/09/27 00:15:55;;;;;;;15.17;13.20;;;16.20;99.90;;;;;;5074082;28;20470;-63
2021/09/27 00:18:23;;;;;;;13.57;12.27;;;16.20;99.90;;;;;;5074022;28;20454;-63
2021/09/27 00:20:53;;;;;;;14.60;13.10;;;16.20;99.90;;;;;;5073722;28;20482;-62
2021/09/27 00:23:20;;;;;;;13.03;11.80;;;16.20;99.90;;;;;;5074037;28;20447;-63
2021/09/27 00:25:47;;;;;;;15.00;12.67;;;16.10;99.90;;;;;;5073704;28;20482;-63
2021/09/27 00:28:14;;;;;;;16.83;13.70;;;16.10;99.90;;;;;;5073806;28;20447;-62
2021/09/27 00:30:41;;;;;;;19.20;12.80;;;16.00;99.90;;;;;;5073995;28;20443;-61
2021/09/27 00:33:09;;;;;;;15.20;13.70;;;16.00;99.90;;;;;;5073768;28;20925;-62
2021/09/27 00:35:39;;;;;;;15.20;13.77;;;16.00;99.90;;;;;;5073262;28;20521;-63
2021/09/27 00:38:08;;;;;;;15.63;12.70;;;16.00;99.90;;;;;;5073592;28;20443;-62
2021/09/27 00:40:36;;;;;;;14.17;12.23;;;16.00;99.90;;;;;;5073541;28;20491;-63
2021/09/27 00:43:04;;;;;;;15.13;13.63;;;16.00;99.90;;;;;;5073547;28;20443;-63
2021/09/27 00:45:34;;;;;;;13.13;11.87;;;16.00;99.90;;;;;;5073559;28;20467;-63
2021/09/27 00:48:01;;;;;;;15.83;13.80;;;16.00;99.90;;;;;;5073254;28;20474;-63
2021/09/27 00:50:31;;;;;;;21.87;12.63;;;16.00;99.90;;;;;;5073592;28;20440;-63
2021/09/27 00:53:02;;;;;;;16.17;14.43;;;16.00;99.90;;;;;;5073889;28;20439;-61
2021/09/27 00:55:30;;;;;;;20.00;14.10;;;16.00;99.90;;;;;;5073497;28;20459;-63
2021/09/27 00:57:57;;;;;;;14.00;12.47;;;16.00;99.90;;;;;;5073346;28;20454;-62
2021/09/27 01:00:26;;;;;;;17.43;13.87;;;16.00;99.90;;;;;;5072399;28;20483;-61
2021/09/27 01:02:53;;;;;;;16.60;13.53;;;16.00;99.90;;;;;;5073051;28;20447;-61
2021/09/27 01:05:22;;;;;;;14.23;12.83;;;16.00;99.90;;;;;;5073238;28;20479;-63
2021/09/27 01:07:54;;;;;;;14.57;13.17;;;16.00;99.90;;;;;;5072995;28;20829;-62
2021/09/27 01:11:00;;;;;;;16.10;13.23;;;16.10;99.90;;;;;;5073387;28;20442;-62
2021/09/27 01:14:01;;;;;;;14.90;13.07;;;16.10;99.90;;;;;;5073133;28;20447;-62
2021/09/27 01:16:36;;;;;;;15.60;13.77;;;16.20;99.90;;;;;;5072784;28;20466;-63
2021/09/27 01:19:28;;;;;;;17.60;14.40;;;16.30;99.90;;;;;;5072896;28;20439;-62
2021/09/27 01:22:05;;;;;;;17.00;13.77;;;16.30;99.90;;;;;;5072933;28;20443;-63
2021/09/27 01:25:03;;;;;;;13.90;12.23;;;16.40;99.90;;;;;;5072540;28;20446;-61
2021/09/27 01:28:01;;;;;;;16.13;13.87;;;16.40;99.90;;;;;;5052897;28;20436;-63
2021/09/27 01:30:51;;;;;;;17.70;14.07;;;16.40;99.90;;;;;;5052873;28;20432;-63
2021/09/27 01:33:23;;;;;;;14.83;13.30;;;16.40;99.90;;;;;;5052772;28;20515;-63
2021/09/27 01:36:02;;;;;;;14.93;13.40;;;16.40;99.90;;;;;;5052609;28;20473;-63
2021/09/27 01:38:36;;;;;;;15.73;14.00;;;16.40;99.90;;;;;;5063561;28;20451;-63
2021/09/27 01:41:13;;;;;;;17.27;15.57;;;16.30;99.90;;;;;;5072335;28;20836;-63
2021/09/27 01:43:45;;;;;;;15.20;13.60;;;16.20;99.90;;;;;;5072549;28;20448;-63
2021/09/27 01:46:19;;;;;;;17.87;16.00;;;16.20;99.90;;;;;;5072354;28;20834;-63
2021/09/27 01:48:53;;;;;;;17.00;15.30;;;16.20;99.90;;;;;;5072311;28;20933;-62
2021/09/27 01:51:27;;;;;;;19.33;14.70;;;16.10;99.90;;;;;;5072344;28;20434;-63
2021/09/27 01:53:58;;;;;;;17.40;14.73;;;16.10;99.90;;;;;;5052244;28;20454;-63
2021/09/27 01:56:30;;;;;;;18.57;14.73;;;16.10;99.90;;;;;;5052304;28;20502;-63
2021/09/27 01:59:05;;;;;;;24.63;16.13;;;16.10;99.90;;;;;;5052173;28;20451;-63
2021/09/27 02:01:41;;;;;;;16.67;14.13;;;16.00;99.90;;;;;;5052073;28;21011;-63
2021/09/27 02:04:13;;;;;;;20.20;15.73;;;16.00;99.90;;;;;;5052314;28;20458;-63
2021/09/27 02:06:43;;;;;;;18.10;16.40;;;16.00;99.90;;;;;;5061499;28;20463;-63
2021/09/27 02:09:15;;;;;;;18.93;16.80;;;16.00;99.90;;;;;;5071728;28;20470;-63
2021/09/27 02:11:44;;;;;;;18.13;16.23;;;15.90;99.90;;;;;;5071874;28;20952;-63
2021/09/27 02:14:17;;;;;;;18.43;15.57;;;15.90;99.90;;;;;;5071972;28;20465;-63
2021/09/27 02:16:48;;;;;;;17.07;15.17;;;15.90;99.90;;;;;;5072000;28;20439;-63
2021/09/27 02:19:26;;;;;;;17.90;16.00;;;15.90;99.90;;;;;;5071764;28;20943;-63
2021/09/27 02:21:58;;;;;;;18.07;16.00;;;15.80;99.90;;;;;;5071775;28;20478;-63
2021/09/27 02:24:32;;;;;;;21.90;17.70;;;15.80;99.90;;;;;;5071859;28;20467;-60
2021/09/27 02:27:02;;;;;;;19.23;17.23;;;15.90;99.90;;;;;;5072636;28;20446;-61
2021/09/27 02:29:29;;;;;;;18.37;16.37;;;15.90;99.90;;;;;;5071388;28;20474;-63
2021/09/27 02:32:06;;;;;;;19.37;16.77;;;16.00;99.90;;;;;;5071798;28;20447;-61
2021/09/27 02:34:41;;;;;;;21.13;15.90;;;16.00;99.90;;;;;;5071933;28;20526;-61
2021/09/27 02:37:13;;;;;;;18.13;15.40;;;16.10;99.90;;;;;;5071785;28;21032;-62
2021/09/27 02:39:47;;;;;;;18.37;15.60;;;16.20;99.90;;;;;;5071518;28;20447;-62
2021/09/27 02:42:20;;;;;;;17.87;15.70;;;16.20;99.90;;;;;;5071625;28;20479;-62
2021/09/27 02:44:47;;;;;;;20.40;18.17;;;16.30;99.90;;;;;;5071666;28;20846;-62
2021/09/27 02:47:18;;;;;;;16.77;15.03;;;16.30;99.90;;;;;;5071441;28;20530;-61
2021/09/27 02:49:46;;;;;;;19.83;17.47;;;16.30;99.90;;;;;;5071756;28;20805;-63
2021/09/27 02:52:15;;;;;;;18.30;15.40;;;16.40;99.90;;;;;;5071502;28;20439;-62
2021/09/27 02:54:46;;;;;;;20.00;16.63;;;16.40;99.90;;;;;;5071154;28;20464;-63
2021/09/27 02:57:31;;;;;;;17.60;15.27;;;16.40;99.90;;;;;;5071557;28;20455;-63
2021/09/27 03:00:06;;;;;;;17.80;14.93;;;16.40;99.90;;;;;;5071411;28;20439;-62
2021/09/27 03:02:42;;;;;;;16.17;14.67;;;16.40;99.90;;;;;;5070985;28;20443;-62
2021/09/27 03:05:17;;;;;;;20.13;17.20;;;16.30;99.90;;;;;;5071095;28;20467;-62
2021/09/27 03:08:00;;;;;;;22.53;17.60;;;16.30;99.90;;;;;;5071109;28;20442;-62
2021/09/27 03:10:35;;;;;;;19.00;17.10;;;16.20;99.90;;;;;;5071397;28;20842;-63
2021/09/27 03:13:11;;;;;;;16.23;14.53;;;16.20;99.90;;;;;;5071299;28;20925;-61
2021/09/27 03:15:54;;;;;;;17.60;15.80;;;16.10;99.90;;;;;;5070985;28;20466;-62
2021/09/27 03:18:38;;;;;;;24.23;17.03;;;16.00;99.90;;;;;;5071076;28;20439;-63
2021/09/27 03:21:19;;;;;;;17.73;15.13;;;16.00;99.90;;;;;;5071067;28;20486;-61
2021/09/27 03:23:55;;;;;;;16.57;14.97;;;15.90;99.90;;;;;;5073112;28;20447;-60
2021/09/27 03:26:33;;;;;;;22.00;15.33;;;15.80;99.90;;;;;;5074726;28;20466;-60
2021/09/27 03:29:13;;;;;;;18.43;15.20;;;15.80;99.90;;;;;;5074881;28;20447;-62
2021/09/27 03:31:50;;;;;;;17.97;16.07;;;15.70;99.90;;;;;;5075106;28;20443;-61
2021/09/27 03:34:24;;;;;;;22.10;16.47;;;15.60;99.90;;;;;;5074925;28;20447;-62
2021/09/27 03:37:10;;;;;;;16.47;14.80;;;15.60;99.90;;;;;;5054952;28;21024;-62
2021/09/27 03:39:45;;;;;;;18.27;15.33;;;15.50;99.90;;;;;;5054860;28;20448;-61
2021/09/27 03:42:18;;;;;;;16.63;14.77;;;15.50;99.90;;;;;;5054953;28;20479;-61
2021/09/27 03:44:53;;;;;;;18.20;15.27;;;15.50;99.90;;;;;;5055087;28;20566;-62
2021/09/27 03:47:28;;;;;;;20.23;16.20;;;15.50;99.90;;;;;;5061746;28;20454;-62
2021/09/27 03:50:00;;;;;;;22.37;19.83;;;15.50;99.90;;;;;;5074502;28;20442;-59
2021/09/27 03:52:35;;;;;;;20.50;16.47;;;15.50;99.90;;;;;;5074656;28;20443;-61
2021/09/27 03:55:07;;;;;;;19.77;16.47;;;15.40;99.90;;;;;;5074500;28;20528;-58
2021/09/27 03:57:39;;;;;;;22.00;18.13;;;15.40;99.90;;;;;;5074561;28;20458;-62
2021/09/27 04:00:09;;;;;;;19.60;15.63;;;15.40;99.90;;;;;;5074294;28;20447;-61
2021/09/27 04:02:42;;;;;;;22.60;17.17;;;15.40;99.90;;;;;;5073791;28;20522;-62
2021/09/27 04:05:16;;;;;;;20.50;17.27;;;15.30;99.90;;;;;;5074241;28;20489;-62
2021/09/27 04:08:06;;;;;;;19.87;17.73;;;15.30;99.90;;;;;;5073612;28;20458;-61
2021/09/27 04:10:48;;;;;;;19.77;16.83;;;15.30;99.90;;;;;;5074317;28;20481;-60
2021/09/27 04:13:25;;;;;;;25.30;18.30;;;15.20;99.90;;;;;;5074412;28;20451;-58
2021/09/27 04:16:10;;;;;;;24.97;20.10;;;15.30;99.90;;;;;;5074345;28;20474;-61
2021/09/27 04:19:01;;;;;;;22.57;19.30;;;15.30;99.90;;;;;;5073868;28;20450;-61
2021/09/27 04:21:36;;;;;;;23.83;18.50;;;15.40;99.90;;;;;;5073934;28;20487;-61
2021/09/27 04:24:18;;;;;;;23.83;18.60;;;15.40;99.90;;;;;;5074047;28;20841;-61
2021/09/27 04:27:01;;;;;;;24.70;17.97;;;15.50;99.90;;;;;;5074059;28;20815;-61
2021/09/27 04:29:58;;;;;;;25.87;19.13;;;15.50;99.90;;;;;;5073741;28;20813;-60
2021/09/27 04:32:34;;;;;;;23.57;18.67;;;15.60;99.90;;;;;;5073980;28;20447;-61
2021/09/27 04:35:12;;;;;;;23.87;16.70;;;15.70;99.90;;;;;;5072675;28;20459;-61
2021/09/27 04:37:39;;;;;;;22.60;16.70;;;15.80;99.90;;;;;;5073754;28;20960;-60
2021/09/27 04:40:09;;;;;;;22.63;17.50;;;15.90;99.90;;;;;;5073639;28;20447;-60
2021/09/27 04:43:01;;;;;;;24.07;18.00;;;15.90;99.90;;;;;;5073719;28;20490;-62
2021/09/27 04:45:55;;;;;;;23.20;17.63;;;16.00;99.90;;;;;;5073553;28;20464;-60
2021/09/27 04:48:39;;;;;;;21.23;16.57;;;16.10;99.90;;;;;;5072475;28;20451;-60
2021/09/27 04:51:18;;;;;;;20.17;16.03;;;16.20;99.90;;;;;;5073717;28;20442;-60
2021/09/27 04:54:16;;;;;;;18.13;16.23;;;16.20;99.90;;;;;;5073534;28;20443;-61
2021/09/27 04:56:54;;;;;;;20.23;15.23;;;16.20;99.90;;;;;;5070976;28;20456;-61
2021/09/27 04:59:38;;;;;;;18.20;16.50;;;16.30;99.90;;;;;;5073214;28;20445;-61
2021/09/27 05:02:21;;;;;;;19.50;17.43;;;16.30;99.90;;;;;;5073257;28;20487;-61
2021/09/27 05:04:51;;;;;;;19.10;16.20;;;16.30;99.90;;;;;;5073507;28;20941;-61
2021/09/27 05:07:47;;;;;;;15.60;14.10;;;16.40;99.90;;;;;;5073165;28;20447;-62
2021/09/27 05:10:33;;;;;;;15.23;13.63;;;16.40;99.90;;;;;;5073211;28;20956;-60
2021/09/27 05:13:23;;;;;;;15.90;14.27;;;16.40;99.90;;;;;;5073261;28;20454;-61
2021/09/27 05:16:04;;;;;;;23.87;14.07;;;16.40;99.90;;;;;;5073154;28;20495;-63
2021/09/27 05:19:02;;;;;;;14.63;13.10;;;16.40;99.90;;;;;;5072972;28;20820;-61
2021/09/27 05:22:00;;;;;;;15.10;13.27;;;16.40;99.90;;;;;;5072696;28;20475;-61
2021/09/27 05:24:45;;;;;;;16.17;14.60;;;16.40;99.90;;;;;;5041648;28;20447;-61
2021/09/27 05:27:56;;;;;;;14.80;12.83;;;16.50;99.90;;;;;;5072742;28;20454;-61
2021/09/27 05:30:48;;;;;;;14.87;13.37;;;16.50;99.90;;;;;;5010782;28;21029;-61
2021/09/27 05:33:22;;;;;;;15.00;13.20;;;16.50;99.90;;;;;;5068335;28;20435;-62
2021/09/27 05:36:11;;;;;;;15.03;13.50;;;16.60;99.90;;;;;;5072583;28;20455;-61
2021/09/27 05:38:47;;;;;;;15.63;14.03;;;16.60;99.90;;;;;;5072370;28;20439;-61
2021/09/27 05:41:20;;;;;;;14.70;13.37;;;16.70;99.90;;;;;;5072453;28;20482;-62
2021/09/27 05:44:01;;;;;;;14.93;13.40;;;16.70;99.90;;;;;;5072478;28;20796;-60
2021/09/27 05:46:57;;;;;;;14.40;13.07;;;16.70;99.90;;;;;;5071998;28;20953;-60
2021/09/27 05:49:28;;;;;;;14.40;12.93;;;16.80;99.90;;;;;;5066932;28;20462;-61
2021/09/27 05:52:01;;;;;;;13.80;12.40;;;16.90;99.90;;;;;;5072519;28;20450;-61
2021/09/27 05:54:38;;;;;;;13.43;12.13;;;16.90;99.90;;;;;;5072160;28;20455;-60
2021/09/27 05:57:11;;;;;;;18.70;14.17;;;16.90;99.90;;;;;;5072346;28;20478;-61
2021/09/27 05:59:46;;;;;;;14.00;12.27;;;16.90;99.90;;;;;;5071890;28;20798;-61
2021/09/27 06:02:27;;;;;;;15.47;13.90;;;16.90;99.90;;;;;;5072065;28;20726;-58
2021/09/27 06:05:03;;;;;;;14.23;12.73;;;16.90;99.90;;;;;;5072056;28;20471;-63
2021/09/27 06:07:35;;;;;;;14.10;12.60;;;17.00;99.90;;;;;;5072172;28;20450;-62
2021/09/27 06:10:10;;;;;;;14.23;12.70;;;17.00;99.90;;;;;;5071817;28;20440;-61
2021/09/27 06:12:44;;;;;;;13.70;12.30;;;17.10;99.90;;;;;;5071886;28;20478;-62
2021/09/27 06:15:14;;;;;;;12.73;11.53;;;17.20;99.90;;;;;;5071784;28;20475;-63
2021/09/27 06:18:06;;;;;;;15.03;13.50;;;17.30;99.90;;;;;;5071755;28;20470;-61
2021/09/27 06:20:48;;;;;;;14.10;12.90;;;17.40;99.90;;;;;;5071866;28;20440;-62
2021/09/27 06:23:36;;;;;;;12.77;11.50;;;17.50;99.90;;;;;;5071626;28;20553;-61
2021/09/27 06:26:07;;;;;;;13.27;11.40;;;17.50;99.90;;;;;;5071616;28;20992;-61
2021/09/27 06:28:40;;;;;;;13.90;12.60;;;17.60;99.90;;;;;;5071620;28;20467;-62
2021/09/27 06:31:10;;;;;;;13.57;12.33;;;17.60;99.90;;;;;;5071688;28;20816;-62
2021/09/27 06:33:42;;;;;;;12.30;11.10;;;17.60;99.90;;;;;;5071860;28;20444;-61
2021/09/27 06:36:13;;;;;;;13.20;11.93;;;17.60;99.90;;;;;;5071557;28;20459;-62
2021/09/27 06:38:40;;;;;;;12.90;11.70;;;17.70;99.90;;;;;;5071364;28;20443;-61
2021/09/27 06:41:16;;;;;;;23.20;14.03;;;17.70;99.90;;;;;;5071534;28;20446;-61
2021/09/27 06:43:42;;;;;;;13.03;11.90;;;17.70;99.90;;;;;;5071637;28;20447;-61
2021/09/27 06:46:09;;;;;;;13.67;12.47;;;17.70;99.90;;;;;;5071379;28;20828;-62
2021/09/27 06:48:36;;;;;;;13.60;12.53;;;17.70;99.90;;;;;;5071271;28;20446;-63
2021/09/27 06:51:04;;;;;;;13.93;12.80;;;17.70;99.90;;;;;;5071446;28;20446;-63
2021/09/27 06:53:31;;;;;;;14.30;13.10;;;17.80;99.90;;;;;;5071402;28;20443;-62
2021/09/27 06:55:58;;;;;;;12.80;11.53;;;17.80;99.90;;;;;;5071353;28;20463;-61
2021/09/27 06:58:24;;;;;;;14.07;12.87;;;17.80;99.90;;;;;;5070602;28;20443;-61
2021/09/27 07:00:51;;;;;;;13.00;12.00;;;17.80;99.90;;;;;;5071291;28;20439;-62
2021/09/27 07:03:18;;;;;;;14.00;12.50;;;17.90;99.90;;;;;;5071316;28;20486;-60
2021/09/27 07:05:45;;;;;;;13.63;12.50;;;17.90;99.90;;;;;;5071402;28;20554;-62
2021/09/27 07:08:13;;;;;;;13.90;12.70;;;18.00;99.90;;;;;;5071060;28;20451;-61
2021/09/27 07:10:40;;;;;;;16.57;14.57;;;18.00;99.90;;;;;;5071275;28;20475;-62
2021/09/27 07:13:07;;;;;;;14.30;13.13;;;18.00;99.90;;;;;;5071289;28;20440;-63
2021/09/27 07:15:34;;;;;;;14.70;13.50;;;18.10;99.90;;;;;;5071143;28;20466;-62
2021/09/27 07:18:00;;;;;;;13.10;12.07;;;18.10;99.90;;;;;;5071040;28;20451;-61
2021/09/27 07:20:28;;;;;;;14.67;13.47;;;18.20;99.90;;;;;;5071190;28;20447;-61
2021/09/27 07:22:57;;;;;;;14.07;12.97;;;18.20;99.90;;;;;;5070967;28;20498;-60
2021/09/27 07:25:28;;;;;;;15.80;14.60;;;18.20;99.90;;;;;;5070883;28;20467;-61
2021/09/27 07:27:55;;;;;;;14.87;13.60;;;18.20;99.90;;;;;;5070821;28;20451;-63
2021/09/27 07:30:23;;;;;;;14.10;13.03;;;18.30;99.90;;;;;;5071017;28;20449;-62
2021/09/27 07:32:51;;;;;;;14.93;13.63;;;18.40;99.90;;;;;;5070954;28;20955;-61
2021/09/27 07:35:23;;;;;;;14.93;13.70;;;18.50;99.90;;;;;;5071050;28;20509;-62
2021/09/27 07:37:50;;;;;;;14.83;13.73;;;18.60;99.90;;;;;;5070854;28;20440;-63
2021/09/27 07:40:21;;;;;;;14.57;13.37;;;18.60;99.90;;;;;;5071062;28;20557;-63
2021/09/27 07:42:49;;;;;;;15.10;13.97;;;18.60;99.90;;;;;;5070994;28;20478;-63
2021/09/27 07:45:19;;;;;;;13.70;12.60;;;18.60;99.90;;;;;;5070806;28;20471;-62
2021/09/27 07:47:46;;;;;;;13.07;12.00;;;18.80;99.90;;;;;;5070703;28;20482;-60
2021/09/27 07:50:13;;;;;;;13.40;12.50;;;19.00;99.90;;;;;;5070835;28;20471;-61
2021/09/27 07:52:40;;;;;;;14.23;13.13;;;19.20;99.90;;;;;;5070959;28;20477;-59
2021/09/27 07:55:08;;;;;;;15.97;14.63;;;19.50;99.90;;;;;;5070834;28;20467;-63
2021/09/27 07:57:35;;;;;;;15.40;14.40;;;19.90;99.90;;;;;;5070862;28;20809;-62
2021/09/27 08:00:05;;;;;;;15.87;14.90;;;20.20;99.90;;;;;;5070573;28;20455;-62
2021/09/27 08:02:32;;;;;;;15.67;14.53;;;20.50;99.90;;;;;;5070642;28;20482;-62
2021/09/27 08:04:59;;;;;;;18.67;17.40;;;20.70;99.90;;;;;;5070562;28;20478;-60
2021/09/27 08:07:26;;;;;;;17.30;15.47;;;20.80;99.90;;;;;;5070808;28;20443;-62
2021/09/27 08:09:53;;;;;;;17.67;16.27;;;20.90;99.90;;;;;;5072363;28;20447;-60
2021/09/27 08:12:20;;;;;;;16.70;15.80;;;20.90;99.90;;;;;;5074301;28;20450;-62
2021/09/27 08:14:47;;;;;;;16.70;15.80;;;20.70;99.90;;;;;;5074112;28;20466;-61
2021/09/27 08:17:15;;;;;;;16.63;15.40;;;20.80;99.90;;;;;;5074236;28;20443;-61
2021/09/27 08:19:45;;;;;;;17.10;16.00;;;20.80;99.90;;;;;;5073946;28;20447;-62
2021/09/27 08:22:12;;;;;;;17.30;16.30;;;20.70;99.90;;;;;;5074010;28;20533;-62
2021/09/27 08:24:38;;;;;;;18.47;17.20;;;20.80;99.90;;;;;;5073853;28;20478;-60
2021/09/27 08:27:06;;;;;;;18.07;16.77;;;20.80;99.90;;;;;;5074987;28;20488;-64
2021/09/27 08:29:33;;;;;;;17.60;16.40;;;20.80;99.90;;;;;;5074321;28;20447;-65
2021/09/27 08:31:59;;;;;;;17.77;16.50;;;21.00;99.90;;;;;;5074586;28;20458;-64
2021/09/27 08:34:27;;;;;;;18.40;17.20;;;21.00;99.90;;;;;;5074592;28;20963;-63
2021/09/27 08:36:55;;;;;;;17.70;16.40;;;21.20;99.90;;;;;;5074833;28;20454;-63
2021/09/27 08:39:22;;;;;;;17.10;16.10;;;21.40;99.90;;;;;;5074605;28;20483;-62
2021/09/27 08:41:52;;;;;;;17.97;16.97;;;21.60;99.90;;;;;;5074964;28;20449;-64
2021/09/27 08:44:49;;;;;;;18.40;17.43;;;21.90;99.90;;;;;;5075305;28;20447;-64
2021/09/27 08:47:23;;;;;;;19.73;18.43;;;22.20;99.90;;;;;;5040455;28;21021;-64
2021/09/27 08:49:57;;;;;;;18.37;17.30;;;22.50;99.90;;;;;;5074755;28;20935;-65
2021/09/27 08:52:26;;;;;;;20.53;19.10;;;22.80;99.90;;;;;;5074939;28;20929;-64
2021/09/27 08:54:54;;;;;;;20.50;19.30;;;22.90;99.90;;;;;;5074446;28;20459;-64
2021/09/27 08:57:39;;;;;;;19.60;18.50;;;22.80;99.90;;;;;;5074566;28;20439;-65
2021/09/27 09:00:15;;;;;;;19.80;18.80;;;22.80;99.90;;;;;;5074155;28;20442;-65
2021/09/27 09:02:51;;;;;;;20.07;19.03;;;22.80;99.90;;;;;;5074157;28;20474;-64
2021/09/27 09:05:24;;;;;;;21.57;20.37;;;22.70;99.90;;;;;;5073785;28;20467;-65
2021/09/27 09:07:58;;;;;;;20.93;19.40;;;22.90;99.90;;;;;;5074067;28;20451;-63
2021/09/27 09:10:42;;;;;;;20.87;19.57;;;22.80;99.90;;;;;;5074611;28;20444;-63
2021/09/27 09:13:12;;;;;;;20.87;19.73;;;22.80;99.90;;;;;;5073699;28;20925;-63
2021/09/27 09:15:41;;;;;;;21.27;19.97;;;23.00;99.90;;;;;;5073897;28;20973;-64
2021/09/27 09:18:14;;;;;;;21.33;20.13;;;23.10;99.90;;;;;;5074006;28;20450;-64
2021/09/27 09:20:51;;;;;;;21.87;20.67;;;23.10;99.90;;;;;;5073718;28;20454;-65
2021/09/27 09:23:23;;;;;;;21.10;19.80;;;23.10;99.90;;;;;;5074042;28;20494;-64
2021/09/27 09:25:50;;;;;;;19.80;18.70;;;23.10;99.90;;;;;;5073521;28;20478;-64
2021/09/27 09:28:17;;;;;;;20.30;19.30;;;23.10;99.90;;;;;;5073944;28;20929;-64
2021/09/27 09:30:50;;;;;;;19.73;18.73;;;23.30;99.90;;;;;;5073354;28;20470;-65
2021/09/27 09:33:38;;;;;;;20.57;19.50;;;23.30;99.90;;;;;;5073339;28;20470;-65
2021/09/27 09:36:10;;;;;;;20.80;19.47;;;23.60;99.90;;;;;;5073701;28;20482;-62
2021/09/27 09:38:39;;;;;;;19.03;18.23;;;23.70;99.90;;;;;;5074026;28;20439;-63
2021/09/27 09:41:07;;;;;;;20.27;19.23;;;23.90;99.90;;;;;;5074219;28;20436;-64
2021/09/27 09:43:36;;;;;;;19.70;18.70;;;24.00;99.90;;;;;;5073927;28;20495;-65
2021/09/27 09:46:07;;;;;;;19.97;18.87;;;24.10;99.90;;;;;;5074173;28;20827;-64
2021/09/27 09:48:35;;;;;;;20.40;19.30;;;24.10;99.90;;;;;;5074287;28;20447;-63
2021/09/27 09:51:25;;;;;;;19.47;18.53;;;23.90;99.90;;;;;;5074625;28;20447;-65
2021/09/27 09:54:05;;;;;;;19.23;18.33;;;23.70;99.90;;;;;;5073664;28;20432;-65
2021/09/27 09:56:34;;;;;;;19.40;18.60;;;23.70;99.90;;;;;;5073356;28;20781;-65
2021/09/27 09:59:02;;;;;;;20.50;19.60;;;23.90;99.90;;;;;;5073362;28;20443;-65
2021/09/27 10:01:33;;;;;;;19.90;18.80;;;24.00;99.90;;;;;;5072694;28;20448;-64
2021/09/27 10:04:03;;;;;;;20.27;19.27;;;23.90;99.90;;;;;;5072407;28;21053;-65
2021/09/27 10:06:37;;;;;;;20.17;19.10;;;23.90;99.90;;;;;;5073008;28;20473;-65
2021/09/27 10:09:07;;;;;;;20.20;19.30;;;23.90;99.90;;;;;;5072877;28;20443;-63
2021/09/27 10:11:37;;;;;;;19.03;18.03;;;23.90;99.90;;;;;;5073169;28;20944;-65
2021/09/27 10:14:19;;;;;;;20.47;19.40;;;24.00;99.90;;;;;;5073037;28;20466;-65
2021/09/27 10:16:49;;;;;;;19.33;18.60;;;24.10;99.90;;;;;;5073004;28;20454;-65
2021/09/27 10:19:23;;;;;;;19.47;18.77;;;24.20;99.90;;;;;;5073035;28;20435;-63
2021/09/27 10:21:58;;;;;;;19.27;18.37;;;24.50;99.90;;;;;;5072149;28;20933;-64
2021/09/27 10:24:33;;;;;;;19.70;18.67;;;24.60;99.90;;;;;;5071590;28;20486;-64
2021/09/27 10:27:02;;;;;;;20.00;19.10;;;24.50;99.90;;;;;;5071713;28;20439;-63
2021/09/27 10:29:31;;;;;;;19.43;18.37;;;24.30;99.90;;;;;;5071759;28;20451;-64
2021/09/27 10:32:02;;;;;;;19.80;18.97;;;23.90;99.90;;;;;;5072832;28;20470;-63
2021/09/27 10:34:33;;;;;;;19.60;18.80;;;23.60;99.90;;;;;;5072585;28;20443;-63
2021/09/27 10:37:09;;;;;;;20.10;19.20;;;23.50;99.90;;;;;;5073545;28;20439;-64
2021/09/27 10:39:36;;;;;;;20.30;19.30;;;23.50;99.90;;;;;;5073088;28;20443;-63
2021/09/27 10:42:07;;;;;;;19.20;18.40;;;23.50;99.90;;;;;;5073248;28;20470;-62
2021/09/27 10:44:38;;;;;;;19.33;18.53;;;23.60;99.90;;;;;;5072294;28;20479;-64
2021/09/27 10:47:09;;;;;;;20.03;19.13;;;24.00;99.90;;;;;;5071841;28;20854;-62
2021/09/27 10:49:44;;;;;;;20.13;19.23;;;24.40;99.90;;;;;;5071366;28;20440;-63
2021/09/27 10:52:30;;;;;;;19.53;18.20;;;24.70;99.90;;;;;;5072612;28;20447;-63
2021/09/27 10:55:00;;;;;;;19.77;18.80;;;25.10;99.90;;;;;;5072352;28;20532;-64
2021/09/27 10:57:38;;;;;;;19.20;18.20;;;25.40;99.90;;;;;;5072735;28;20452;-63
2021/09/27 11:00:16;;;;;;;19.20;18.20;;;25.70;99.90;;;;;;5072175;28;20446;-64
2021/09/27 11:02:47;;;;;;;20.00;19.30;;;26.00;99.90;;;;;;5072333;28;20446;-64
2021/09/27 11:05:25;;;;;;;20.13;19.07;;;26.40;99.90;;;;;;5072346;28;20505;-63
2021/09/27 11:07:55;;;;;;;19.53;18.53;;;26.20;99.90;;;;;;5072531;28;20781;-64
2021/09/27 11:10:29;;;;;;;19.13;18.33;;;25.90;99.90;;;;;;5071969;28;20935;-64
2021/09/27 11:12:56;;;;;;;18.87;18.17;;;25.60;99.90;;;;;;5071653;28;20446;-65
2021/09/27 11:15:26;;;;;;;18.40;17.70;;;25.30;99.90;;;;;;5072776;28;20463;-65
2021/09/27 11:18:05;;;;;;;19.20;18.40;;;25.00;99.90;;;;;;5071793;28;20432;-65
2021/09/27 11:21:03;;;;;;;18.70;17.90;;;25.00;99.90;;;;;;5071933;28;20447;-63
2021/09/27 11:23:35;;;;;;;18.77;17.90;;;25.40;99.90;;;;;;5071547;28;20487;-65
2021/09/27 11:26:36;;;;;;;19.80;19.00;;;25.50;99.90;;;;;;5071330;28;20482;-65
2021/09/27 11:29:27;;;;;;;19.73;18.83;;;25.00;99.90;;;;;;5071861;28;20924;-64
2021/09/27 11:32:18;;;;;;;19.40;18.70;;;24.70;99.90;;;;;;5071694;28;20447;-65
2021/09/27 11:34:55;;;;;;;19.50;18.70;;;24.50;99.90;;;;;;5072387;28;21011;-64
2021/09/27 11:37:25;;;;;;;20.10;19.30;;;24.60;99.90;;;;;;5072913;28;20454;-64
2021/09/27 11:40:13;;;;;;;20.00;19.23;;;24.90;99.90;;;;;;5072012;28;20458;-65
2021/09/27 11:42:54;;;;;;;20.73;19.77;;;25.60;99.90;;;;;;5071545;28;20865;-65
2021/09/27 11:45:46;;;;;;;19.50;18.70;;;26.30;98.50;;;;;;5074522;28;20513;-65
2021/09/27 11:48:41;;;;;;;20.07;19.27;;;27.30;96.20;;;;;;5074820;28;20539;-65
2021/09/27 11:51:32;;;;;;;19.90;19.20;;;27.70;92.80;;;;;;5075185;28;20488;-65
2021/09/27 11:54:17;;;;;;;20.13;19.23;;;28.00;90.90;;;;;;5075159;28;20451;-64
2021/09/27 11:56:52;;;;;;;20.80;20.00;;;27.90;90.30;;;;;;5075090;28;20439;-65
2021/09/27 11:59:26;;;;;;;19.57;18.77;;;27.80;90.40;;;;;;5074624;28;20439;-65
2021/09/27 12:02:02;;;;;;;19.00;18.30;;;27.30;89.70;;;;;;5075003;28;20439;-65
2021/09/27 12:04:52;;;;;;;18.07;17.37;;;26.90;90.60;;;;;;5074627;28;20829;-64
2021/09/27 12:07:21;;;;;;;20.33;19.57;;;26.20;92.20;;;;;;5074468;28;20442;-65
2021/09/27 12:09:52;;;;;;;19.10;18.30;;;26.10;93.40;;;;;;5074793;28;20450;-63
2021/09/27 12:12:26;;;;;;;18.60;17.90;;;25.60;94.50;;;;;;5075094;28;20439;-65
2021/09/27 12:14:54;;;;;;;18.60;17.80;;;25.70;95.30;;;;;;5074443;28;20474;-65
2021/09/27 12:17:26;;;;;;;18.70;18.03;;;25.60;95.50;;;;;;5074887;28;20447;-64
2021/09/27 12:19:58;;;;;;;19.97;19.00;;;25.20;96.20;;;;;;5074805;28;20447;-65
2021/09/27 12:22:30;;;;;;;20.07;19.17;;;25.20;96.90;;;;;;5074348;28;20712;-65
2021/09/27 12:24:59;;;;;;;19.30;18.60;;;25.20;97.20;;;;;;5074138;28;20505;-64
2021/09/27 12:27:29;;;;;;;18.93;18.13;;;25.00;96.80;;;;;;5074887;28;20447;-65
2021/09/27 12:29:59;;;;;;;21.63;20.73;;;25.00;97.50;;;;;;5074766;28;20451;-64
2021/09/27 12:32:28;;;;;;;19.80;19.10;;;24.90;97.00;;;;;;5074529;28;20515;-65
2021/09/27 12:34:56;;;;;;;18.57;17.97;;;24.90;97.40;;;;;;5074331;28;20455;-65
2021/09/27 12:37:24;;;;;;;19.00;18.30;;;25.50;97.20;;;;;;5074352;28;20443;-65
2021/09/27 12:39:51;;;;;;;19.17;18.37;;;26.10;96.20;;;;;;5074064;28;20443;-64
2021/09/27 12:42:21;;;;;;;19.23;18.43;;;26.70;94.70;;;;;;5074495;28;20466;-64
2021/09/27 12:44:56;;;;;;;20.07;19.27;;;27.00;93.40;;;;;;5074109;28;20482;-65
2021/09/27 12:47:23;;;;;;;19.00;18.40;;;27.60;92.10;;;;;;5073877;28;20812;-65
2021/09/27 12:49:53;;;;;;;18.57;17.90;;;27.30;90.70;;;;;;5073978;28;20451;-65
2021/09/27 12:52:33;;;;;;;19.83;19.10;;;27.50;90.50;;;;;;5073970;28;20436;-65
2021/09/27 12:55:03;;;;;;;19.03;18.43;;;27.10;90.60;;;;;;5073679;28;20470;-65
2021/09/27 12:57:36;;;;;;;20.13;19.30;;;26.60;90.80;;;;;;5073088;28;20451;-64
2021/09/27 13:00:09;;;;;;;20.47;19.57;;;26.30;91.80;;;;;;5073620;28;20516;-65
2021/09/27 13:02:42;;;;;;;19.73;18.73;;;26.10;92.30;;;;;;5073385;28;20443;-65
2021/09/27 13:05:14;;;;;;;20.47;19.60;;;25.90;92.70;;;;;;5073375;28;20542;-62